sensor_id;sensor_type;location;lat;lon;timestamp;P1;P2;P0
49528;PMS5003;35423;37.320;-121.762;2023-05-17T00:02:14;5;5;
49528;PMS5003;35423;37.320;-121.762;2023-05-17T00:04:41;6;6;
49528;PMS5003;35423;37.320;-121.762;2023-05-17T00:07:13;4;4;
49528;PMS5003;35423;37.320;-121.762;2023-05-17T00:09:50;7;7;
49528;PMS5003;35423;37.320;-121.762;2023-05-17T00:12:16;11;11;
49528;PMS5003;35423;37.320;-121.762;2023-05-17T00:14:48;7;7;
49528;PMS5003;35423;37.320;-121.762;2023-05-17T00:17:16;3;3;
49528;PMS5003;35423;37.320;-121.762;2023-05-17T00:19:45;8;8;
49528;PMS5003;35423;37.320;-121.762;2023-05-17T00:22:16;6;6;
49528;PMS5003;35423;37.320;-121.762;2023-05-17T00:24:41;5;5;
49528;PMS5003;35423;37.320;-121.762;2023-05-17T00:27:10;6;6;
49528;PMS5003;35423;37.320;-121.762;2023-05-17T00:29:40;20;8;
49528;PMS5003;35423;37.320;-121.762;2023-05-17T00:32:10;8;8;
49528;PMS5003;35423;37.320;-121.762;2023-05-17T00:34:39;5;5;
49528;PMS5003;35423;37.320;-121.762;2023-05-17T00:37:06;4;4;
49528;PMS5003;35423;37.320;-121.762;2023-05-17T00:39:33;4;4;
49528;PMS5003;35423;37.320;-121.762;2023-05-17T00:42:01;6;6;
49528;PMS5003;35423;37.320;-121.762;2023-05-17T00:44:26;3;3;
49528;PMS5003;35423;37.320;-121.762;2023-05-17T00:46:53;5;5;
49528;PMS5003;35423;37.320;-121.762;2023-05-17T00:49:22;5;5;
49528;PMS5003;35423;37.320;-121.762;2023-05-17T00:51:49;14;2;
49528;PMS5003;35423;37.320;-121.762;2023-05-17T00:54:16;3;3;
49528;PMS5003;35423;37.320;-121.762;2023-05-17T00:56:42;1;1;
49528;PMS5003;35423;37.320;-121.762;2023-05-17T00:59:10;6;6;
49528;PMS5003;35423;37.320;-121.762;2023-05-17T01:01:39;4;4;
49528;PMS5003;35423;37.320;-121.762;2023-05-17T01:04:04;7;7;
49528;PMS5003;35423;37.320;-121.762;2023-05-17T01:06:30;7;7;
49528;PMS5003;35423;37.320;-121.762;2023-05-17T01:08:56;2;2;
49528;PMS5003;35423;37.320;-121.762;2023-05-17T01:11:28;4;4;
49528;PMS5003;35423;37.320;-121.762;2023-05-17T01:13:54;4;4;
49528;PMS5003;35423;37.320;-121.762;2023-05-17T01:16:24;3;3;
49528;PMS5003;35423;37.320;-121.762;2023-05-17T01:18:47;6;6;
49528;PMS5003;35423;37.320;-121.762;2023-05-17T01:21:24;2;2;
49528;PMS5003;35423;37.320;-121.762;2023-05-17T01:23:45;5;5;
49528;PMS5003;35423;37.320;-121.762;2023-05-17T01:26:07;9;9;
49528;PMS5003;35423;37.320;-121.762;2023-05-17T01:28:47;6;6;
49528;PMS5003;35423;37.320;-121.762;2023-05-17T01:31:02;7;7;
49528;PMS5003;35423;37.320;-121.762;2023-05-17T01:33:30;4;4;
49528;PMS5003;35423;37.320;-121.762;2023-05-17T01:35:56;5;5;
49528;PMS5003;35423;37.320;-121.762;2023-05-17T01:38:26;7;7;
49528;PMS5003;35423;37.320;-121.762;2023-05-17T01:40:53;3;3;
49528;PMS5003;35423;37.320;-121.762;2023-05-17T01:43:21;5;5;
49528;PMS5003;35423;37.320;-121.762;2023-05-17T01:45:49;4;4;
49528;PMS5003;35423;37.320;-121.762;2023-05-17T01:48:16;3;3;
49528;PMS5003;35423;37.320;-121.762;2023-05-17T01:50:42;2;2;
49528;PMS5003;35423;37.320;-121.762;2023-05-17T01:53:20;4;4;
49528;PMS5003;35423;37.320;-121.762;2023-05-17T01:55:48;1;1;
49528;PMS5003;35423;37.320;-121.762;2023-05-17T01:58:11;4;4;
49528;PMS5003;35423;37.320;-121.762;2023-05-17T02:00:37;18;2;
49528;PMS5003;35423;37.320;-121.762;2023-05-17T02:03:05;2;2;
49528;PMS5003;35423;37.320;-121.762;2023-05-17T02:05:30;3;3;
49528;PMS5003;35423;37.320;-121.762;2023-05-17T02:07:57;6;6;
49528;PMS5003;35423;37.320;-121.762;2023-05-17T02:10:23;5;5;
49528;PMS5003;35423;37.320;-121.762;2023-05-17T02:12:51;12;12;
49528;PMS5003;35423;37.320;-121.762;2023-05-17T02:15:16;5;5;
49528;PMS5003;35423;37.320;-121.762;2023-05-17T02:17:44;1;1;
49528;PMS5003;35423;37.320;-121.762;2023-05-17T02:20:19;4;4;
49528;PMS5003;35423;37.320;-121.762;2023-05-17T02:22:47;6;6;
49528;PMS5003;35423;37.320;-121.762;2023-05-17T02:25:14;1;1;
49528;PMS5003;35423;37.320;-121.762;2023-05-17T02:27:40;2;2;
49528;PMS5003;35423;37.320;-121.762;2023-05-17T02:30:07;4;4;
49528;PMS5003;35423;37.320;-121.762;2023-05-17T02:32:35;7;7;
49528;PMS5003;35423;37.320;-121.762;2023-05-17T02:35:11;3;3;
49528;PMS5003;35423;37.320;-121.762;2023-05-17T02:37:30;4;4;
49528;PMS5003;35423;37.320;-121.762;2023-05-17T02:40:02;5;5;
49528;PMS5003;35423;37.320;-121.762;2023-05-17T02:42:31;3;3;
49528;PMS5003;35423;37.320;-121.762;2023-05-17T02:44:56;2;2;
49528;PMS5003;35423;37.320;-121.762;2023-05-17T02:47:22;1;1;
49528;PMS5003;35423;37.320;-121.762;2023-05-17T02:49:47;5;5;
49528;PMS5003;35423;37.320;-121.762;2023-05-17T02:52:13;2;2;
49528;PMS5003;35423;37.320;-121.762;2023-05-17T02:54:40;8;8;
49528;PMS5003;35423;37.320;-121.762;2023-05-17T02:57:06;2;2;
49528;PMS5003;35423;37.320;-121.762;2023-05-17T02:59:32;4;4;
49528;PMS5003;35423;37.320;-121.762;2023-05-17T03:01:59;2;2;
49528;PMS5003;35423;37.320;-121.762;2023-05-17T03:04:24;0;0;
49528;PMS5003;35423;37.320;-121.762;2023-05-17T03:06:56;2;2;
49528;PMS5003;35423;37.320;-121.762;2023-05-17T03:09:24;2;2;
49528;PMS5003;35423;37.320;-121.762;2023-05-17T03:11:54;3;3;
49528;PMS5003;35423;37.320;-121.762;2023-05-17T03:14:20;4;4;
49528;PMS5003;35423;37.320;-121.762;2023-05-17T03:16:55;1;1;
49528;PMS5003;35423;37.320;-121.762;2023-05-17T03:19:22;7;7;
49528;PMS5003;35423;37.320;-121.762;2023-05-17T03:21:50;0;0;
49528;PMS5003;35423;37.320;-121.762;2023-05-17T03:24:22;3;3;
49528;PMS5003;35423;37.320;-121.762;2023-05-17T03:26:50;5;5;
49528;PMS5003;35423;37.320;-121.762;2023-05-17T03:29:15;9;9;
49528;PMS5003;35423;37.320;-121.762;2023-05-17T03:31:44;4;4;
49528;PMS5003;35423;37.320;-121.762;2023-05-17T03:34:31;4;4;
49528;PMS5003;35423;37.320;-121.762;2023-05-17T03:36:57;5;5;
49528;PMS5003;35423;37.320;-121.762;2023-05-17T03:39:31;3;3;
49528;PMS5003;35423;37.320;-121.762;2023-05-17T03:41:56;6;6;
49528;PMS5003;35423;37.320;-121.762;2023-05-17T03:44:24;5;5;
49528;PMS5003;35423;37.320;-121.762;2023-05-17T03:47:02;2;2;
49528;PMS5003;35423;37.320;-121.762;2023-05-17T03:49:30;20;4;
49528;PMS5003;35423;37.320;-121.762;2023-05-17T03:51:58;6;6;
49528;PMS5003;35423;37.320;-121.762;2023-05-17T03:54:26;3;3;
49528;PMS5003;35423;37.320;-121.762;2023-05-17T03:57:00;7;7;
49528;PMS5003;35423;37.320;-121.762;2023-05-17T03:59:31;3;3;
49528;PMS5003;35423;37.320;-121.762;2023-05-17T04:01:57;5;5;
49528;PMS5003;35423;37.320;-121.762;2023-05-17T04:04:24;4;4;
49528;PMS5003;35423;37.320;-121.762;2023-05-17T04:06:50;10;10;
49528;PMS5003;35423;37.320;-121.762;2023-05-17T04:09:17;5;5;
49528;PMS5003;35423;37.320;-121.762;2023-05-17T04:11:44;8;8;
49528;PMS5003;35423;37.320;-121.762;2023-05-17T04:14:11;2;2;
49528;PMS5003;35423;37.320;-121.762;2023-05-17T04:16:37;8;8;
49528;PMS5003;35423;37.320;-121.762;2023-05-17T04:19:02;4;4;
49528;PMS5003;35423;37.320;-121.762;2023-05-17T04:21:29;5;5;
49528;PMS5003;35423;37.320;-121.762;2023-05-17T04:23:56;6;6;
49528;PMS5003;35423;37.320;-121.762;2023-05-17T04:26:21;4;4;
49528;PMS5003;35423;37.320;-121.762;2023-05-17T04:28:47;21;10;
49528;PMS5003;35423;37.320;-121.762;2023-05-17T04:31:32;6;6;
49528;PMS5003;35423;37.320;-121.762;2023-05-17T04:33:57;5;5;
49528;PMS5003;35423;37.320;-121.762;2023-05-17T04:36:22;5;5;
49528;PMS5003;35423;37.320;-121.762;2023-05-17T04:38:50;6;6;
49528;PMS5003;35423;37.320;-121.762;2023-05-17T04:41:17;9;9;
49528;PMS5003;35423;37.320;-121.762;2023-05-17T04:43:43;4;4;
49528;PMS5003;35423;37.320;-121.762;2023-05-17T04:46:11;4;4;
49528;PMS5003;35423;37.320;-121.762;2023-05-17T04:48:43;7;7;
49528;PMS5003;35423;37.320;-121.762;2023-05-17T04:51:19;8;8;
49528;PMS5003;35423;37.320;-121.762;2023-05-17T04:53:46;9;9;
49528;PMS5003;35423;37.320;-121.762;2023-05-17T04:56:16;3;3;
49528;PMS5003;35423;37.320;-121.762;2023-05-17T04:58:41;3;3;
49528;PMS5003;35423;37.320;-121.762;2023-05-17T05:01:08;4;4;
49528;PMS5003;35423;37.320;-121.762;2023-05-17T05:03:34;3;3;
49528;PMS5003;35423;37.320;-121.762;2023-05-17T05:06:01;0;0;
49528;PMS5003;35423;37.320;-121.762;2023-05-17T05:08:27;5;5;
49528;PMS5003;35423;37.320;-121.762;2023-05-17T05:10:54;11;11;
49528;PMS5003;35423;37.320;-121.762;2023-05-17T05:13:24;8;8;
49528;PMS5003;35423;37.320;-121.762;2023-05-17T05:15:50;5;5;
49528;PMS5003;35423;37.320;-121.762;2023-05-17T05:18:15;6;6;
49528;PMS5003;35423;37.320;-121.762;2023-05-17T05:20:44;7;7;
49528;PMS5003;35423;37.320;-121.762;2023-05-17T05:23:12;3;3;
49528;PMS5003;35423;37.320;-121.762;2023-05-17T05:25:44;12;7;
49528;PMS5003;35423;37.320;-121.762;2023-05-17T05:28:12;6;6;
49528;PMS5003;35423;37.320;-121.762;2023-05-17T05:30:38;8;8;
49528;PMS5003;35423;37.320;-121.762;2023-05-17T05:33:06;11;11;
49528;PMS5003;35423;37.320;-121.762;2023-05-17T05:35:32;6;6;
49528;PMS5003;35423;37.320;-121.762;2023-05-17T05:37:58;4;4;
49528;PMS5003;35423;37.320;-121.762;2023-05-17T05:40:24;7;7;
49528;PMS5003;35423;37.320;-121.762;2023-05-17T05:42:49;11;11;
49528;PMS5003;35423;37.320;-121.762;2023-05-17T05:45:16;5;5;
49528;PMS5003;35423;37.320;-121.762;2023-05-17T05:47:46;7;7;
49528;PMS5003;35423;37.320;-121.762;2023-05-17T05:50:12;1;1;
49528;PMS5003;35423;37.320;-121.762;2023-05-17T05:52:51;8;8;
49528;PMS5003;35423;37.320;-121.762;2023-05-17T05:55:26;24;8;
49528;PMS5003;35423;37.320;-121.762;2023-05-17T05:57:55;15;10;
49528;PMS5003;35423;37.320;-121.762;2023-05-17T06:00:23;4;4;
49528;PMS5003;35423;37.320;-121.762;2023-05-17T06:02:50;8;8;
49528;PMS5003;35423;37.320;-121.762;2023-05-17T06:05:15;9;9;
49528;PMS5003;35423;37.320;-121.762;2023-05-17T06:07:42;14;3;
49528;PMS5003;35423;37.320;-121.762;2023-05-17T06:10:17;6;6;
49528;PMS5003;35423;37.320;-121.762;2023-05-17T06:12:41;8;5;
49528;PMS5003;35423;37.320;-121.762;2023-05-17T06:15:19;7;7;
49528;PMS5003;35423;37.320;-121.762;2023-05-17T06:17:47;10;10;
49528;PMS5003;35423;37.320;-121.762;2023-05-17T06:20:17;9;9;
49528;PMS5003;35423;37.320;-121.762;2023-05-17T06:22:44;6;6;
49528;PMS5003;35423;37.320;-121.762;2023-05-17T06:25:09;6;6;
49528;PMS5003;35423;37.320;-121.762;2023-05-17T06:27:38;5;5;
49528;PMS5003;35423;37.320;-121.762;2023-05-17T06:30:07;6;6;
49528;PMS5003;35423;37.320;-121.762;2023-05-17T06:32:34;6;6;
49528;PMS5003;35423;37.320;-121.762;2023-05-17T06:35:00;7;7;
49528;PMS5003;35423;37.320;-121.762;2023-05-17T06:37:26;6;6;
49528;PMS5003;35423;37.320;-121.762;2023-05-17T06:40:01;9;9;
49528;PMS5003;35423;37.320;-121.762;2023-05-17T06:42:28;3;3;
49528;PMS5003;35423;37.320;-121.762;2023-05-17T06:44:52;15;5;
49528;PMS5003;35423;37.320;-121.762;2023-05-17T06:47:24;4;4;
49528;PMS5003;35423;37.320;-121.762;2023-05-17T06:49:50;3;3;
49528;PMS5003;35423;37.320;-121.762;2023-05-17T06:52:19;6;6;
49528;PMS5003;35423;37.320;-121.762;2023-05-17T06:54:47;1;1;
49528;PMS5003;35423;37.320;-121.762;2023-05-17T06:57:13;7;1;
49528;PMS5003;35423;37.320;-121.762;2023-05-17T06:59:44;0;0;
49528;PMS5003;35423;37.320;-121.762;2023-05-17T07:02:09;7;7;
49528;PMS5003;35423;37.320;-121.762;2023-05-17T07:04:36;1;1;
49528;PMS5003;35423;37.320;-121.762;2023-05-17T07:07:05;7;7;
49528;PMS5003;35423;37.320;-121.762;2023-05-17T07:09:31;4;4;
49528;PMS5003;35423;37.320;-121.762;2023-05-17T07:12:00;8;8;
49528;PMS5003;35423;37.320;-121.762;2023-05-17T07:14:28;5;5;
49528;PMS5003;35423;37.320;-121.762;2023-05-17T07:16:58;5;5;
49528;PMS5003;35423;37.320;-121.762;2023-05-17T07:19:25;8;8;
49528;PMS5003;35423;37.320;-121.762;2023-05-17T07:22:02;9;9;
49528;PMS5003;35423;37.320;-121.762;2023-05-17T07:24:35;7;7;
49528;PMS5003;35423;37.320;-121.762;2023-05-17T07:27:00;5;5;
49528;PMS5003;35423;37.320;-121.762;2023-05-17T07:29:27;10;10;
49528;PMS5003;35423;37.320;-121.762;2023-05-17T07:31:57;10;10;
49528;PMS5003;35423;37.320;-121.762;2023-05-17T07:34:25;10;10;
49528;PMS5003;35423;37.320;-121.762;2023-05-17T07:36:51;8;8;
49528;PMS5003;35423;37.320;-121.762;2023-05-17T07:39:17;8;8;
49528;PMS5003;35423;37.320;-121.762;2023-05-17T07:41:47;3;3;
49528;PMS5003;35423;37.320;-121.762;2023-05-17T07:44:18;8;8;
49528;PMS5003;35423;37.320;-121.762;2023-05-17T07:46:51;4;4;
49528;PMS5003;35423;37.320;-121.762;2023-05-17T07:49:17;11;11;
49528;PMS5003;35423;37.320;-121.762;2023-05-17T07:51:48;6;6;
49528;PMS5003;35423;37.320;-121.762;2023-05-17T07:56:39;3;3;
49528;PMS5003;35423;37.320;-121.762;2023-05-17T07:59:05;3;3;
49528;PMS5003;35423;37.320;-121.762;2023-05-17T08:01:30;11;7;
49528;PMS5003;35423;37.320;-121.762;2023-05-17T08:03:56;6;6;
49528;PMS5003;35423;37.320;-121.762;2023-05-17T08:06:21;13;7;
49528;PMS5003;35423;37.320;-121.762;2023-05-17T08:08:46;3;3;
49528;PMS5003;35423;37.320;-121.762;2023-05-17T08:11:13;0;0;
49528;PMS5003;35423;37.320;-121.762;2023-05-17T08:13:39;10;10;
49528;PMS5003;35423;37.320;-121.762;2023-05-17T08:16:04;6;6;
49528;PMS5003;35423;37.320;-121.762;2023-05-17T08:18:30;4;4;
49528;PMS5003;35423;37.320;-121.762;2023-05-17T08:20:56;14;3;
49528;PMS5003;35423;37.320;-121.762;2023-05-17T08:23:22;8;8;
49528;PMS5003;35423;37.320;-121.762;2023-05-17T08:25:47;7;7;
49528;PMS5003;35423;37.320;-121.762;2023-05-17T08:28:13;6;6;
49528;PMS5003;35423;37.320;-121.762;2023-05-17T08:30:41;5;5;
49528;PMS5003;35423;37.320;-121.762;2023-05-17T08:33:05;9;9;
49528;PMS5003;35423;37.320;-121.762;2023-05-17T08:35:38;4;4;
49528;PMS5003;35423;37.320;-121.762;2023-05-17T08:38:05;8;8;
49528;PMS5003;35423;37.320;-121.762;2023-05-17T08:40:31;4;4;
49528;PMS5003;35423;37.320;-121.762;2023-05-17T08:42:57;6;6;
49528;PMS5003;35423;37.320;-121.762;2023-05-17T08:45:24;4;4;
49528;PMS5003;35423;37.320;-121.762;2023-05-17T08:47:51;8;8;
49528;PMS5003;35423;37.320;-121.762;2023-05-17T08:50:16;12;12;
49528;PMS5003;35423;37.320;-121.762;2023-05-17T08:52:48;7;7;
49528;PMS5003;35423;37.320;-121.762;2023-05-17T08:55:17;17;6;
49528;PMS5003;35423;37.320;-121.762;2023-05-17T08:57:44;7;7;
49528;PMS5003;35423;37.320;-121.762;2023-05-17T09:00:15;10;10;
49528;PMS5003;35423;37.320;-121.762;2023-05-17T09:02:55;11;11;
49528;PMS5003;35423;37.320;-121.762;2023-05-17T09:05:21;5;5;
49528;PMS5003;35423;37.320;-121.762;2023-05-17T09:08:02;5;5;
49528;PMS5003;35423;37.320;-121.762;2023-05-17T09:10:37;6;6;
49528;PMS5003;35423;37.320;-121.762;2023-05-17T09:13:09;5;5;
49528;PMS5003;35423;37.320;-121.762;2023-05-17T09:15:33;13;13;
49528;PMS5003;35423;37.320;-121.762;2023-05-17T09:18:01;7;7;
49528;PMS5003;35423;37.320;-121.762;2023-05-17T09:20:28;11;11;
49528;PMS5003;35423;37.320;-121.762;2023-05-17T09:22:54;7;7;
49528;PMS5003;35423;37.320;-121.762;2023-05-17T09:25:22;9;9;
49528;PMS5003;35423;37.320;-121.762;2023-05-17T09:27:47;4;4;
49528;PMS5003;35423;37.320;-121.762;2023-05-17T09:30:11;7;7;
49528;PMS5003;35423;37.320;-121.762;2023-05-17T09:32:41;4;4;
49528;PMS5003;35423;37.320;-121.762;2023-05-17T09:35:02;8;8;
49528;PMS5003;35423;37.320;-121.762;2023-05-17T09:37:28;6;6;
49528;PMS5003;35423;37.320;-121.762;2023-05-17T09:39:58;14;3;
49528;PMS5003;35423;37.320;-121.762;2023-05-17T09:42:24;7;7;
49528;PMS5003;35423;37.320;-121.762;2023-05-17T09:44:49;6;6;
49528;PMS5003;35423;37.320;-121.762;2023-05-17T09:47:23;9;9;
49528;PMS5003;35423;37.320;-121.762;2023-05-17T09:49:46;6;6;
49528;PMS5003;35423;37.320;-121.762;2023-05-17T09:52:34;8;8;
49528;PMS5003;35423;37.320;-121.762;2023-05-17T09:55:00;5;5;
49528;PMS5003;35423;37.320;-121.762;2023-05-17T09:57:26;7;7;
49528;PMS5003;35423;37.320;-121.762;2023-05-17T09:59:59;11;11;
49528;PMS5003;35423;37.320;-121.762;2023-05-17T10:02:30;6;6;
49528;PMS5003;35423;37.320;-121.762;2023-05-17T10:04:56;12;10;
49528;PMS5003;35423;37.320;-121.762;2023-05-17T10:07:23;6;6;
49528;PMS5003;35423;37.320;-121.762;2023-05-17T10:09:48;0;0;
49528;PMS5003;35423;37.320;-121.762;2023-05-17T10:12:17;6;6;
49528;PMS5003;35423;37.320;-121.762;2023-05-17T10:14:44;3;3;
49528;PMS5003;35423;37.320;-121.762;2023-05-17T10:17:10;6;6;
49528;PMS5003;35423;37.320;-121.762;2023-05-17T10:19:39;6;6;
49528;PMS5003;35423;37.320;-121.762;2023-05-17T10:22:04;6;6;
49528;PMS5003;35423;37.320;-121.762;2023-05-17T10:24:32;8;8;
49528;PMS5003;35423;37.320;-121.762;2023-05-17T10:26:58;17;10;
49528;PMS5003;35423;37.320;-121.762;2023-05-17T10:29:23;5;5;
49528;PMS5003;35423;37.320;-121.762;2023-05-17T10:31:54;11;11;
49528;PMS5003;35423;37.320;-121.762;2023-05-17T10:34:20;16;16;
49528;PMS5003;35423;37.320;-121.762;2023-05-17T10:36:45;7;7;
49528;PMS5003;35423;37.320;-121.762;2023-05-17T10:39:10;8;8;
49528;PMS5003;35423;37.320;-121.762;2023-05-17T10:41:45;7;7;
49528;PMS5003;35423;37.320;-121.762;2023-05-17T10:44:12;8;8;
49528;PMS5003;35423;37.320;-121.762;2023-05-17T10:49:11;12;12;
49528;PMS5003;35423;37.320;-121.762;2023-05-17T10:51:36;11;11;
49528;PMS5003;35423;37.320;-121.762;2023-05-17T10:54:09;10;10;
49528;PMS5003;35423;37.320;-121.762;2023-05-17T10:56:39;12;12;
49528;PMS5003;35423;37.320;-121.762;2023-05-17T10:59:16;7;7;
49528;PMS5003;35423;37.320;-121.762;2023-05-17T11:06:37;7;7;
49528;PMS5003;35423;37.320;-121.762;2023-05-17T11:09:13;16;8;
49528;PMS5003;35423;37.320;-121.762;2023-05-17T11:11:41;9;9;
49528;PMS5003;35423;37.320;-121.762;2023-05-17T11:14:07;20;13;
49528;PMS5003;35423;37.320;-121.762;2023-05-17T11:16:34;11;11;
49528;PMS5003;35423;37.320;-121.762;2023-05-17T11:19:05;12;12;
49528;PMS5003;35423;37.320;-121.762;2023-05-17T11:21:25;8;8;
49528;PMS5003;35423;37.320;-121.762;2023-05-17T11:24:00;7;7;
49528;PMS5003;35423;37.320;-121.762;2023-05-17T11:26:30;11;11;
49528;PMS5003;35423;37.320;-121.762;2023-05-17T11:28:58;16;14;
49528;PMS5003;35423;37.320;-121.762;2023-05-17T11:31:19;15;15;
49528;PMS5003;35423;37.320;-121.762;2023-05-17T11:33:44;14;14;
49528;PMS5003;35423;37.320;-121.762;2023-05-17T11:36:14;14;14;
49528;PMS5003;35423;37.320;-121.762;2023-05-17T11:38:38;12;12;
49528;PMS5003;35423;37.320;-121.762;2023-05-17T11:43:33;23;23;
49528;PMS5003;35423;37.320;-121.762;2023-05-17T11:46:00;11;11;
49528;PMS5003;35423;37.320;-121.762;2023-05-17T11:48:25;3;3;
49528;PMS5003;35423;37.320;-121.762;2023-05-17T11:50:52;6;6;
49528;PMS5003;35423;37.320;-121.762;2023-05-17T11:53:20;21;21;
49528;PMS5003;35423;37.320;-121.762;2023-05-17T11:55:47;12;12;
49528;PMS5003;35423;37.320;-121.762;2023-05-17T11:58:16;11;11;
49528;PMS5003;35423;37.320;-121.762;2023-05-17T12:00:39;16;16;
49528;PMS5003;35423;37.320;-121.762;2023-05-17T12:05:33;22;22;
49528;PMS5003;35423;37.320;-121.762;2023-05-17T12:07:59;16;16;
49528;PMS5003;35423;37.320;-121.762;2023-05-17T12:10:24;20;9;
49528;PMS5003;35423;37.320;-121.762;2023-05-17T12:12:50;18;18;
49528;PMS5003;35423;37.320;-121.762;2023-05-17T12:15:17;14;11;
49528;PMS5003;35423;37.320;-121.762;2023-05-17T12:17:44;21;21;
49528;PMS5003;35423;37.320;-121.762;2023-05-17T12:20:17;10;10;
49528;PMS5003;35423;37.320;-121.762;2023-05-17T12:25:18;11;11;
49528;PMS5003;35423;37.320;-121.762;2023-05-17T12:27:46;9;9;
49528;PMS5003;35423;37.320;-121.762;2023-05-17T12:30:15;11;11;
49528;PMS5003;35423;37.320;-121.762;2023-05-17T12:32:38;10;10;
49528;PMS5003;35423;37.320;-121.762;2023-05-17T12:35:06;13;13;
49528;PMS5003;35423;37.320;-121.762;2023-05-17T12:37:30;20;12;
49528;PMS5003;35423;37.320;-121.762;2023-05-17T12:39:57;25;17;
49528;PMS5003;35423;37.320;-121.762;2023-05-17T12:42:21;8;8;
49528;PMS5003;35423;37.320;-121.762;2023-05-17T12:44:50;15;15;
49528;PMS5003;35423;37.320;-121.762;2023-05-17T12:47:15;19;16;
49528;PMS5003;35423;37.320;-121.762;2023-05-17T12:52:08;9;9;
49528;PMS5003;35423;37.320;-121.762;2023-05-17T12:54:33;12;12;
49528;PMS5003;35423;37.320;-121.762;2023-05-17T12:59:33;18;7;
49528;PMS5003;35423;37.320;-121.762;2023-05-17T13:02:00;13;13;
49528;PMS5003;35423;37.320;-121.762;2023-05-17T13:04:28;14;14;
49528;PMS5003;35423;37.320;-121.762;2023-05-17T13:06:55;15;15;
49528;PMS5003;35423;37.320;-121.762;2023-05-17T13:09:20;6;6;
49528;PMS5003;35423;37.320;-121.762;2023-05-17T13:11:49;10;10;
49528;PMS5003;35423;37.320;-121.762;2023-05-17T13:14:12;18;18;
49528;PMS5003;35423;37.320;-121.762;2023-05-17T13:16:40;14;14;
49528;PMS5003;35423;37.320;-121.762;2023-05-17T13:21:37;16;16;
49528;PMS5003;35423;37.320;-121.762;2023-05-17T13:24:07;13;13;
49528;PMS5003;35423;37.320;-121.762;2023-05-17T13:26:38;7;7;
49528;PMS5003;35423;37.320;-121.762;2023-05-17T13:29:03;15;15;
49528;PMS5003;35423;37.320;-121.762;2023-05-17T13:31:28;12;12;
49528;PMS5003;35423;37.320;-121.762;2023-05-17T13:34:05;17;17;
49528;PMS5003;35423;37.320;-121.762;2023-05-17T13:36:35;11;11;
49528;PMS5003;35423;37.320;-121.762;2023-05-17T13:39:00;31;16;
49528;PMS5003;35423;37.320;-121.762;2023-05-17T13:41:30;14;14;
49528;PMS5003;35423;37.320;-121.762;2023-05-17T13:43:56;18;18;
49528;PMS5003;35423;37.320;-121.762;2023-05-17T13:46:22;18;18;
49528;PMS5003;35423;37.320;-121.762;2023-05-17T13:48:53;15;15;
49528;PMS5003;35423;37.320;-121.762;2023-05-17T13:51:20;12;12;
49528;PMS5003;35423;37.320;-121.762;2023-05-17T13:53:47;23;16;
49528;PMS5003;35423;37.320;-121.762;2023-05-17T13:56:14;16;16;
49528;PMS5003;35423;37.320;-121.762;2023-05-17T13:58:43;23;23;
49528;PMS5003;35423;37.320;-121.762;2023-05-17T14:01:08;13;13;
49528;PMS5003;35423;37.320;-121.762;2023-05-17T14:03:35;13;13;
49528;PMS5003;35423;37.320;-121.762;2023-05-17T14:06:03;13;13;
49528;PMS5003;35423;37.320;-121.762;2023-05-17T14:08:31;25;22;
49528;PMS5003;35423;37.320;-121.762;2023-05-17T14:10:58;22;22;
49528;PMS5003;35423;37.320;-121.762;2023-05-17T14:13:23;21;21;
49528;PMS5003;35423;37.320;-121.762;2023-05-17T14:15:53;17;17;
49528;PMS5003;35423;37.320;-121.762;2023-05-17T14:18:15;27;27;
49528;PMS5003;35423;37.320;-121.762;2023-05-17T14:20:43;25;25;
49528;PMS5003;35423;37.320;-121.762;2023-05-17T14:23:09;22;22;
49528;PMS5003;35423;37.320;-121.762;2023-05-17T14:25:37;30;30;
49528;PMS5003;35423;37.320;-121.762;2023-05-17T14:28:03;9;9;
49528;PMS5003;35423;37.320;-121.762;2023-05-17T14:30:28;18;18;
49528;PMS5003;35423;37.320;-121.762;2023-05-17T14:32:54;17;17;
49528;PMS5003;35423;37.320;-121.762;2023-05-17T14:35:25;21;21;
49528;PMS5003;35423;37.320;-121.762;2023-05-17T14:40:15;15;15;
49528;PMS5003;35423;37.320;-121.762;2023-05-17T14:42:42;16;16;
49528;PMS5003;35423;37.320;-121.762;2023-05-17T14:45:13;27;22;
49528;PMS5003;35423;37.320;-121.762;2023-05-17T14:47:34;21;19;
49528;PMS5003;35423;37.320;-121.762;2023-05-17T14:50:04;21;21;
49528;PMS5003;35423;37.320;-121.762;2023-05-17T14:52:30;22;22;
49528;PMS5003;35423;37.320;-121.762;2023-05-17T14:55:00;9;9;
49528;PMS5003;35423;37.320;-121.762;2023-05-17T14:57:27;17;17;
49528;PMS5003;35423;37.320;-121.762;2023-05-17T14:59:53;24;24;
49528;PMS5003;35423;37.320;-121.762;2023-05-17T15:02:24;24;20;
49528;PMS5003;35423;37.320;-121.762;2023-05-17T15:04:50;22;22;
49528;PMS5003;35423;37.320;-121.762;2023-05-17T15:07:18;18;18;
49528;PMS5003;35423;37.320;-121.762;2023-05-17T15:09:43;19;19;
49528;PMS5003;35423;37.320;-121.762;2023-05-17T15:12:15;21;21;
49528;PMS5003;35423;37.320;-121.762;2023-05-17T15:14:42;16;16;
49528;PMS5003;35423;37.320;-121.762;2023-05-17T15:17:11;25;25;
49528;PMS5003;35423;37.320;-121.762;2023-05-17T15:19:39;25;25;
49528;PMS5003;35423;37.320;-121.762;2023-05-17T15:22:06;20;20;
49528;PMS5003;35423;37.320;-121.762;2023-05-17T15:24:37;21;21;
49528;PMS5003;35423;37.320;-121.762;2023-05-17T15:27:08;16;16;
49528;PMS5003;35423;37.320;-121.762;2023-05-17T15:29:35;26;26;
49528;PMS5003;35423;37.320;-121.762;2023-05-17T15:32:01;30;18;
49528;PMS5003;35423;37.320;-121.762;2023-05-17T15:34:27;22;18;
49528;PMS5003;35423;37.320;-121.762;2023-05-17T15:37:03;21;21;
49528;PMS5003;35423;37.320;-121.762;2023-05-17T15:39:28;23;23;
49528;PMS5003;35423;37.320;-121.762;2023-05-17T15:41:56;19;19;
49528;PMS5003;35423;37.320;-121.762;2023-05-17T15:44:24;13;13;
49528;PMS5003;35423;37.320;-121.762;2023-05-17T15:46:49;14;14;
49528;PMS5003;35423;37.320;-121.762;2023-05-17T15:49:15;16;16;
49528;PMS5003;35423;37.320;-121.762;2023-05-17T15:51:41;25;25;
49528;PMS5003;35423;37.320;-121.762;2023-05-17T15:54:09;12;12;
49528;PMS5003;35423;37.320;-121.762;2023-05-17T15:56:35;22;22;
49528;PMS5003;35423;37.320;-121.762;2023-05-17T15:59:01;25;25;
49528;PMS5003;35423;37.320;-121.762;2023-05-17T16:01:32;22;15;
49528;PMS5003;35423;37.320;-121.762;2023-05-17T16:03:54;15;15;
49528;PMS5003;35423;37.320;-121.762;2023-05-17T16:06:19;23;19;
49528;PMS5003;35423;37.320;-121.762;2023-05-17T16:08:47;25;13;
49528;PMS5003;35423;37.320;-121.762;2023-05-17T16:11:13;13;13;
49528;PMS5003;35423;37.320;-121.762;2023-05-17T16:13:38;21;21;
49528;PMS5003;35423;37.320;-121.762;2023-05-17T16:16:09;18;18;
49528;PMS5003;35423;37.320;-121.762;2023-05-17T16:18:34;19;17;
49528;PMS5003;35423;37.320;-121.762;2023-05-17T16:21:02;14;14;